createdAt,value
2022-10-27T00:04:03.919Z,13.07
2022-10-27T00:09:06.288Z,12.05
2022-10-27T00:14:08.931Z,15.25
2022-10-27T00:19:13.200Z,12.95
2022-10-27T00:24:17.790Z,14.13
2022-10-27T00:29:22.275Z,14.02
2022-10-27T00:34:24.720Z,12.70
2022-10-27T00:39:31.375Z,13.60
2022-10-27T00:44:34.898Z,12.55
2022-10-27T00:49:45.410Z,13.25
2022-10-27T00:54:47.590Z,13.25
2022-10-27T00:59:56.448Z,13.68
2022-10-27T01:05:29.108Z,13.52
2022-10-27T01:10:33.640Z,13.60
2022-10-27T01:15:56.895Z,12.70
2022-10-27T01:21:17.323Z,13.05
2022-10-27T01:26:43.048Z,12.73
2022-10-27T01:31:51.835Z,13.00
2022-10-27T01:37:03.172Z,12.93
2022-10-27T01:42:09.945Z,11.80
2022-10-27T01:47:14.834Z,11.45
2022-10-27T01:52:37.038Z,12.75
2022-10-27T01:58:15.965Z,11.75
2022-10-27T02:03:19.142Z,13.00
2022-10-27T02:08:28.450Z,12.68
2022-10-27T02:13:33.800Z,12.73
2022-10-27T02:18:39.053Z,12.35
2022-10-27T02:23:42.298Z,12.57
2022-10-27T02:29:04.397Z,13.07
2022-10-27T02:34:08.944Z,12.65
2022-10-27T02:39:10.707Z,14.07
2022-10-27T02:44:12.453Z,12.93
2022-10-27T02:49:14.200Z,12.45
2022-10-27T02:54:18.156Z,13.75
2022-10-27T02:59:19.925Z,12.27
2022-10-27T03:04:24.090Z,12.32
2022-10-27T03:09:28.314Z,14.52
2022-10-27T03:14:30.080Z,14.07
2022-10-27T03:19:31.846Z,14.65
2022-10-27T03:24:34.333Z,13.07
2022-10-27T03:29:40.213Z,14.40
2022-10-27T03:34:42.028Z,15.43
2022-10-27T03:39:44.492Z,14.77
2022-10-27T03:44:46.283Z,13.93
2022-10-27T03:49:50.369Z,13.68
2022-10-27T03:54:53.094Z,15.60
2022-10-27T03:59:54.838Z,14.85
2022-10-27T04:05:02.542Z,14.75
2022-10-27T04:10:11.158Z,15.30
2022-10-27T04:15:21.124Z,14.13
2022-10-27T04:20:23.404Z,14.75
2022-10-27T04:25:30.585Z,15.25
2022-10-27T04:30:35.111Z,15.43
2022-10-27T04:35:36.895Z,17.00
2022-10-27T04:40:38.701Z,15.07
2022-10-27T04:45:50.658Z,15.27
2022-10-27T04:50:54.508Z,17.05
2022-10-27T04:56:00.264Z,17.55
2022-10-27T05:01:09.596Z,14.82
2022-10-27T05:06:11.431Z,16.30
2022-10-27T05:11:16.252Z,15.63
2022-10-27T05:16:23.054Z,16.08
2022-10-27T05:21:27.075Z,18.02
2022-10-27T05:26:32.994Z,17.55
2022-10-27T05:31:39.599Z,19.25
2022-10-27T05:36:47.975Z,19.13
2022-10-27T05:41:53.120Z,18.60
2022-10-27T05:46:56.163Z,20.63
2022-10-27T05:51:57.957Z,17.17
2022-10-27T05:56:59.736Z,13.30
2022-10-27T06:02:01.591Z,20.10
2022-10-27T06:07:08.036Z,19.15
2022-10-27T06:12:15.502Z,21.42
2022-10-27T06:17:22.036Z,23.33
2022-10-27T06:22:23.813Z,18.48
2022-10-27T06:27:28.145Z,21.50
2022-10-27T06:32:30.387Z,21.45
2022-10-27T06:37:43.423Z,22.35
2022-10-27T06:43:05.501Z,20.98
2022-10-27T06:48:12.900Z,19.25
2022-10-27T06:53:18.203Z,22.05
2022-10-27T06:58:19.971Z,23.77
2022-10-27T07:03:23.947Z,20.90
2022-10-27T07:08:26.016Z,20.15
2022-10-27T07:13:27.800Z,21.02
2022-10-27T07:18:29.750Z,20.23
2022-10-27T07:23:33.927Z,21.20
2022-10-27T07:28:39.437Z,22.08
2022-10-27T07:33:43.556Z,22.02
2022-10-27T07:38:46.504Z,21.02
2022-10-27T07:43:50.499Z,21.60
2022-10-27T07:48:52.271Z,19.50
2022-10-27T07:53:57.097Z,19.38
2022-10-27T07:59:04.917Z,18.92
2022-10-27T08:04:10.427Z,19.55
2022-10-27T08:09:16.340Z,18.38
2022-10-27T08:14:30.230Z,17.35
2022-10-27T08:19:34.359Z,16.30
2022-10-27T08:24:46.422Z,15.52
2022-10-27T08:29:50.855Z,15.45
2022-10-27T08:34:54.786Z,15.13
2022-10-27T08:39:56.563Z,14.57
2022-10-27T08:45:25.670Z,14.35
2022-10-27T08:50:41.960Z,15.57
2022-10-27T08:55:51.737Z,15.85
2022-10-27T09:01:04.051Z,15.40
2022-10-27T09:06:24.743Z,14.73
2022-10-27T09:11:59.218Z,14.50
2022-10-27T09:17:11.122Z,13.98
2022-10-27T09:22:16.733Z,13.45
2022-10-27T09:27:20.946Z,14.13
2022-10-27T09:32:28.615Z,13.13
2022-10-27T09:37:34.516Z,12.32
2022-10-27T09:42:36.333Z,13.30
2022-10-27T09:47:40.359Z,11.90
2022-10-27T09:52:44.841Z,12.80
2022-10-27T09:57:50.797Z,14.20
2022-10-27T10:03:00.700Z,11.40
2022-10-27T10:08:27.665Z,11.40
2022-10-27T10:13:33.435Z,10.65
2022-10-27T10:18:37.284Z,8.55
2022-10-27T10:23:50.207Z,8.98
2022-10-27T10:29:08.224Z,7.63
2022-10-27T10:34:31.667Z,6.43
2022-10-27T10:39:41.282Z,6.28
2022-10-27T10:44:49.370Z,5.70
2022-10-27T10:50:01.340Z,6.43
2022-10-27T10:55:29.770Z,5.57
2022-10-27T11:00:36.505Z,5.28
2022-10-27T11:05:40.847Z,5.50
2022-10-27T11:10:48.006Z,6.07
2022-10-27T11:16:01.575Z,6.05
2022-10-27T11:21:15.873Z,6.18
2022-10-27T11:26:39.002Z,6.75
2022-10-27T11:32:10.043Z,6.30
2022-10-27T11:37:37.133Z,6.60
2022-10-27T11:42:41.861Z,6.25
2022-10-27T11:47:52.950Z,7.13
2022-10-27T11:52:58.138Z,7.15
2022-10-27T11:58:21.491Z,7.43
2022-10-27T12:03:47.295Z,7.25
2022-10-27T12:09:16.090Z,6.38
2022-10-27T12:14:39.608Z,6.43
2022-10-27T12:19:44.745Z,6.00
2022-10-27T12:24:56.506Z,6.65
2022-10-27T12:30:07.261Z,6.05
2022-10-27T12:35:19.192Z,5.53
2022-10-27T12:40:31.191Z,4.75
2022-10-27T12:45:41.423Z,5.10
2022-10-27T12:51:14.796Z,4.18
2022-10-27T12:56:25.678Z,3.20
2022-10-27T13:01:42.102Z,3.20
2022-10-27T13:07:04.898Z,2.67
2022-10-27T13:12:15.551Z,3.15
2022-10-27T13:17:52.930Z,2.67
2022-10-27T13:23:07.389Z,2.55
2022-10-27T13:28:52.098Z,2.28
2022-10-27T13:34:20.074Z,2.50
2022-10-27T13:39:22.787Z,2.50
2022-10-27T13:44:28.235Z,3.53
2022-10-27T13:49:42.150Z,3.20
2022-10-27T13:55:02.930Z,3.15
2022-10-27T14:00:11.942Z,3.60
2022-10-27T14:05:26.141Z,3.55
2022-10-27T14:10:28.461Z,3.38
2022-10-27T14:15:39.914Z,3.40
2022-10-27T14:20:44.550Z,3.72
2022-10-27T14:31:09.530Z,3.60
2022-10-27T14:36:33.669Z,3.88
2022-10-27T14:41:37.739Z,3.50
2022-10-27T14:46:41.676Z,4.03
2022-10-27T14:51:46.347Z,3.70
2022-10-27T14:56:49.007Z,3.88
2022-10-27T15:01:53.805Z,3.80
2022-10-27T15:07:02.776Z,4.50
2022-10-27T15:12:27.538Z,4.28
2022-10-27T15:17:34.174Z,4.07
2022-10-27T15:22:38.628Z,4.40
2022-10-27T15:27:50.132Z,4.25
2022-10-27T15:32:54.549Z,3.97
2022-10-27T15:37:59.625Z,4.20
2022-10-27T15:43:01.876Z,4.90
2022-10-27T15:48:06.525Z,4.63
2022-10-27T15:53:17.183Z,4.20
2022-10-27T15:58:30.416Z,4.47
2022-10-27T16:03:58.048Z,7.15
2022-10-27T16:09:08.287Z,5.05
2022-10-27T16:14:14.126Z,6.03
2022-10-27T16:19:21.175Z,5.00
2022-10-27T16:24:34.208Z,4.53
2022-10-27T16:29:36.466Z,5.05
2022-10-27T16:34:43.812Z,4.68
2022-10-27T16:39:50.794Z,4.03
2022-10-27T16:44:53.706Z,6.57
2022-10-27T16:49:57.221Z,4.40
2022-10-27T16:55:09.862Z,4.00
2022-10-27T17:00:17.852Z,4.50
2022-10-27T17:05:24.496Z,4.80
2022-10-27T17:10:29.344Z,4.15
2022-10-27T17:15:40.916Z,3.63
2022-10-27T17:20:54.582Z,3.42
2022-10-27T17:26:03.561Z,3.53
2022-10-27T17:31:07.936Z,3.35
2022-10-27T17:36:14.515Z,3.03
2022-10-27T17:41:16.599Z,3.10
2022-10-27T17:46:22.860Z,3.00
2022-10-27T17:51:32.294Z,3.50
2022-10-27T17:56:36.885Z,3.58
2022-10-27T18:01:39.373Z,3.85
2022-10-27T18:06:43.967Z,3.90
2022-10-27T18:11:46.071Z,4.15
2022-10-27T18:16:47.947Z,4.28
2022-10-27T18:34:05.450Z,4.18
2022-10-27T18:39:15.712Z,4.65
2022-10-27T18:44:27.569Z,4.47
2022-10-27T18:49:47.560Z,4.43
2022-10-27T18:54:54.102Z,4.43
2022-10-27T19:00:06.864Z,4.82
2022-10-27T19:05:11.888Z,4.70
2022-10-27T19:10:29.752Z,4.60
2022-10-27T19:15:42.718Z,4.70
2022-10-27T19:20:45.774Z,4.50
2022-10-27T19:25:51.125Z,4.93
2022-10-27T19:30:59.108Z,5.00
2022-10-27T19:36:14.949Z,4.88
2022-10-27T19:41:21.611Z,4.70
2022-10-27T19:46:27.712Z,4.53
2022-10-27T19:51:32.414Z,4.72
2022-10-27T19:56:36.456Z,4.28
2022-10-27T20:01:42.493Z,4.55
2022-10-27T20:06:48.792Z,4.45
2022-10-27T20:11:51.153Z,4.45
2022-10-27T20:16:53.015Z,5.35
2022-10-27T20:21:55.984Z,4.38
2022-10-27T20:26:57.874Z,5.13
2022-10-27T20:32:02.953Z,5.47
2022-10-27T20:37:04.919Z,4.22
2022-10-27T20:42:09.129Z,4.40
2022-10-27T20:47:13.147Z,4.22
2022-10-27T20:52:15.106Z,4.80
2022-10-27T20:57:19.173Z,5.03
2022-10-27T21:02:21.355Z,5.43
2022-10-27T21:07:25.465Z,5.70
2022-10-27T21:12:27.442Z,5.28
2022-10-27T21:17:29.345Z,5.10
2022-10-27T21:22:34.257Z,5.93
2022-10-27T21:27:37.125Z,5.35
2022-10-27T21:32:41.163Z,5.60
2022-10-27T21:37:45.426Z,5.07
2022-10-27T21:42:51.120Z,5.75
2022-10-27T21:47:53.465Z,5.78
2022-10-27T21:53:02.629Z,5.80
2022-10-27T21:58:07.497Z,6.38
2022-10-27T22:03:10.263Z,7.28
2022-10-27T22:08:15.092Z,6.25
2022-10-27T22:13:20.524Z,6.45
2022-10-27T22:18:24.663Z,6.57
2022-10-27T22:23:26.533Z,6.32
2022-10-27T22:28:30.742Z,6.63
2022-10-27T22:33:32.907Z,6.40
2022-10-27T22:38:37.665Z,6.95
2022-10-27T22:43:46.232Z,7.47
2022-10-27T22:48:50.713Z,6.28
2022-10-27T22:53:53.891Z,6.07
2022-10-27T22:58:57.899Z,6.95
2022-10-27T23:04:03.922Z,6.57
2022-10-27T23:09:11.997Z,6.35
2022-10-27T23:14:16.246Z,7.32
2022-10-27T23:19:28.023Z,6.28
2022-10-27T23:24:31.468Z,7.47
2022-10-27T23:29:38.054Z,6.53
2022-10-27T23:34:39.892Z,6.65
2022-10-27T23:39:47.228Z,7.00
2022-10-27T23:44:49.053Z,6.55
2022-10-27T23:49:50.846Z,7.35
2022-10-27T23:54:52.801Z,6.53
2022-10-27T23:59:54.640Z,8.55
